Time;durP1;ratioP1;P1;durP2;ratioP2;P2;SDS_P1;SDS_P2;PMS_P1;PMS_P2;Temp;Humidity;BMP_temperature;BMP_pressure;BME280_temperature;BME280_humidity;BME280_pressure;Samples;Min_cycle;Max_cycle;Signal;HPM_P1;HPM_P2
2022/03/14 00:00:51;;;;;;;76.22;22.98;;;;;;;;;;4883656;29;20048;-84
2022/03/14 00:03:20;;;;;;;92.10;28.25;;;;;;;;;;4883830;29;20549;-84
2022/03/14 00:05:46;;;;;;;124.70;31.67;;;;;;;;;;4883758;29;20028;-83
2022/03/14 00:08:13;;;;;;;115.22;31.33;;;;;;;;;;4883567;29;20035;-84
2022/03/14 00:10:40;;;;;;;77.90;22.90;;;;;;;;;;4883336;29;20128;-84
2022/03/14 00:13:07;;;;;;;99.60;28.67;;;;;;;;;;4884064;29;20029;-84
2022/03/14 00:15:33;;;;;;;107.35;27.25;;;;;;;;;;4883449;29;20055;-84
2022/03/14 00:18:04;;;;;;;98.65;29.35;;;;;;;;;;4883482;29;20039;-85
2022/03/14 00:20:30;;;;;;;88.28;25.80;;;;;;;;;;4884624;29;20375;-85
2022/03/14 00:22:59;;;;;;;87.78;28.33;;;;;;;;;;4884148;29;20111;-85
2022/03/14 00:25:26;;;;;;;99.45;26.42;;;;;;;;;;4882863;29;20371;-86
2022/03/14 00:27:54;;;;;;;90.82;27.02;;;;;;;;;;4883513;29;20036;-85
2022/03/14 00:30:20;;;;;;;103.53;27.88;;;;;;;;;;4883308;29;20532;-85
2022/03/14 00:32:48;;;;;;;89.40;25.38;;;;;;;;;;4882946;29;20112;-85
2022/03/14 00:35:14;;;;;;;101.03;27.77;;;;;;;;;;4882934;29;20404;-85
2022/03/14 00:37:41;;;;;;;66.75;21.63;;;;;;;;;;4883668;29;20028;-84
2022/03/14 00:40:08;;;;;;;62.83;21.63;;;;;;;;;;4883395;29;20039;-84
2022/03/14 00:42:35;;;;;;;50.97;16.63;;;;;;;;;;4883929;29;20028;-85
2022/03/14 00:45:02;;;;;;;59.42;19.48;;;;;;;;;;4882814;29;20036;-90
2022/03/14 00:47:31;;;;;;;62.20;20.05;;;;;;;;;;4884172;29;20036;-89
2022/03/14 00:49:57;;;;;;;64.80;19.90;;;;;;;;;;4886930;29;20063;-84
2022/03/14 00:52:24;;;;;;;69.63;21.15;;;;;;;;;;4902990;29;20394;-83
2022/03/14 00:54:50;;;;;;;57.67;18.40;;;;;;;;;;4882750;29;20033;-84
2022/03/14 00:57:17;;;;;;;50.67;17.42;;;;;;;;;;4883330;29;20028;-84
2022/03/14 00:59:43;;;;;;;63.78;19.70;;;;;;;;;;4882752;29;20498;-84
2022/03/14 01:02:09;;;;;;;53.35;19.67;;;;;;;;;;4883230;29;20052;-84
2022/03/14 01:04:36;;;;;;;75.40;21.15;;;;;;;;;;4885007;29;20029;-83
2022/03/14 01:07:02;;;;;;;64.90;22.10;;;;;;;;;;4882727;29;20061;-88
2022/03/14 01:09:29;;;;;;;87.35;25.58;;;;;;;;;;4884712;29;20075;-83
2022/03/14 01:11:55;;;;;;;99.70;25.85;;;;;;;;;;4899273;29;20089;-85
2022/03/14 01:14:22;;;;;;;82.97;24.83;;;;;;;;;;4882640;29;20088;-88
2022/03/14 01:16:48;;;;;;;82.47;22.90;;;;;;;;;;4899584;29;20422;-87
2022/03/14 01:19:17;;;;;;;82.00;23.70;;;;;;;;;;4899518;29;20091;-85
2022/03/14 01:21:43;;;;;;;90.60;26.70;;;;;;;;;;4886769;29;20463;-83
2022/03/14 01:24:09;;;;;;;97.65;26.27;;;;;;;;;;4883588;29;20036;-84
2022/03/14 01:26:35;;;;;;;98.35;28.60;;;;;;;;;;4913008;29;20029;-86
2022/03/14 01:29:03;;;;;;;87.97;26.05;;;;;;;;;;4890274;29;20069;-84
2022/03/14 01:31:29;;;;;;;79.97;25.77;;;;;;;;;;4882652;29;20063;-84
2022/03/14 01:33:55;;;;;;;92.55;25.42;;;;;;;;;;4882039;29;20036;-87
2022/03/14 01:36:21;;;;;;;90.68;27.33;;;;;;;;;;4899070;29;20100;-88
2022/03/14 01:38:47;;;;;;;86.30;24.70;;;;;;;;;;4884087;29;20055;-85
2022/03/14 01:41:17;;;;;;;98.03;27.92;;;;;;;;;;4882193;29;20036;-83
2022/03/14 01:43:44;;;;;;;90.63;27.23;;;;;;;;;;4882826;29;20048;-84
2022/03/14 01:46:10;;;;;;;80.78;24.88;;;;;;;;;;4881785;29;20029;-83
2022/03/14 01:48:40;;;;;;;70.18;21.80;;;;;;;;;;4881700;29;20033;-88
2022/03/14 01:51:06;;;;;;;57.92;19.25;;;;;;;;;;4881833;29;20427;-85
2022/03/14 01:53:32;;;;;;;63.58;19.60;;;;;;;;;;4880941;29;20033;-85
2022/03/14 01:55:58;;;;;;;52.13;16.73;;;;;;;;;;4881761;29;20040;-84
2022/03/14 01:58:25;;;;;;;45.30;13.80;;;;;;;;;;4882402;29;20028;-85
2022/03/14 02:00:51;;;;;;;39.92;12.07;;;;;;;;;;4881356;29;20044;-85
2022/03/14 02:03:18;;;;;;;35.97;13.10;;;;;;;;;;4881647;29;20064;-84
2022/03/14 02:05:45;;;;;;;35.10;11.30;;;;;;;;;;4882638;29;20033;-85
2022/03/14 02:08:12;;;;;;;27.02;10.25;;;;;;;;;;4881576;29;20032;-85
2022/03/14 02:10:38;;;;;;;26.23;9.35;;;;;;;;;;4881817;29;20037;-85
2022/03/14 02:13:09;;;;;;;23.25;8.55;;;;;;;;;;4898589;29;20037;-85
2022/03/14 02:15:36;;;;;;;22.70;8.95;;;;;;;;;;4882193;29;20092;-84
2022/03/14 02:18:02;;;;;;;24.98;9.90;;;;;;;;;;4881700;29;20024;-85
2022/03/14 02:20:29;;;;;;;23.98;9.13;;;;;;;;;;4881371;29;20028;-84
2022/03/14 02:22:55;;;;;;;23.98;10.02;;;;;;;;;;4881528;29;20052;-83
2022/03/14 02:25:21;;;;;;;33.72;10.88;;;;;;;;;;4874435;29;20122;-82
2022/03/14 02:27:54;;;;;;;35.03;10.05;;;;;;;;;;4862664;29;20040;-86
2022/03/14 02:30:36;;;;;;;25.97;10.23;;;;;;;;;;4864850;29;20105;-89
2022/03/14 02:33:02;;;;;;;32.65;10.32;;;;;;;;;;4863453;29;20105;-89
2022/03/14 02:35:28;;;;;;;25.63;10.57;;;;;;;;;;4879720;29;20037;-89
2022/03/14 02:37:54;;;;;;;27.95;9.70;;;;;;;;;;4862850;29;20029;-85
2022/03/14 02:40:20;;;;;;;19.33;8.90;;;;;;;;;;4864578;29;20033;-84
2022/03/14 02:42:46;;;;;;;23.35;9.35;;;;;;;;;;4863175;29;20033;-89
2022/03/14 02:45:14;;;;;;;17.38;7.97;;;;;;;;;;4880051;29;20367;-85
2022/03/14 02:47:41;;;;;;;26.08;8.70;;;;;;;;;;4863022;29;20025;-88
2022/03/14 02:50:07;;;;;;;23.65;8.48;;;;;;;;;;4863099;29;20044;-85
2022/03/14 02:52:34;;;;;;;24.90;8.52;;;;;;;;;;4863410;29;20387;-85
2022/03/14 02:55:03;;;;;;;20.88;8.90;;;;;;;;;;4864218;29;20037;-90
2022/03/14 02:57:31;;;;;;;20.23;8.98;;;;;;;;;;4863242;29;20044;-86
2022/03/14 02:59:57;;;;;;;21.02;8.05;;;;;;;;;;4867662;29;20524;-86
2022/03/14 03:02:25;;;;;;;18.35;7.80;;;;;;;;;;4880839;29;20079;-83
2022/03/14 03:04:51;;;;;;;21.35;8.63;;;;;;;;;;4885960;29;20028;-85
2022/03/14 03:07:22;;;;;;;22.77;9.18;;;;;;;;;;4885698;29;20032;-84
2022/03/14 03:09:48;;;;;;;30.20;9.93;;;;;;;;;;4886722;29;20047;-85
2022/03/14 03:12:15;;;;;;;25.33;8.20;;;;;;;;;;4884866;29;20458;-85
2022/03/14 03:14:41;;;;;;;25.90;9.48;;;;;;;;;;4904804;29;20037;-86
2022/03/14 03:17:07;;;;;;;20.60;8.55;;;;;;;;;;4901870;29;20284;-89
2022/03/14 03:19:34;;;;;;;32.92;10.60;;;;;;;;;;4885008;29;20029;-85
2022/03/14 03:22:00;;;;;;;41.17;13.93;;;;;;;;;;4885719;29;20144;-89
2022/03/14 03:24:26;;;;;;;41.58;13.38;;;;;;;;;;4885261;29;20028;-90
2022/03/14 03:26:52;;;;;;;40.22;13.55;;;;;;;;;;4886281;29;20570;-84
2022/03/14 03:29:18;;;;;;;30.83;11.30;;;;;;;;;;4884812;29;20076;-85
2022/03/14 03:31:44;;;;;;;33.50;12.88;;;;;;;;;;4884629;29;20035;-84
2022/03/14 03:34:11;;;;;;;34.85;13.10;;;;;;;;;;4885724;29;20500;-84
2022/03/14 03:36:37;;;;;;;29.85;11.27;;;;;;;;;;4884294;29;20096;-84
2022/03/14 03:39:03;;;;;;;29.08;11.88;;;;;;;;;;4885983;29;20039;-86
2022/03/14 03:41:29;;;;;;;39.35;12.32;;;;;;;;;;4884475;29;20035;-85
2022/03/14 03:43:55;;;;;;;34.55;12.60;;;;;;;;;;4901500;29;20067;-85
2022/03/14 03:46:21;;;;;;;34.67;12.70;;;;;;;;;;4885256;29;20059;-86
2022/03/14 03:48:47;;;;;;;31.58;12.77;;;;;;;;;;4884773;29;20043;-85
2022/03/14 03:51:14;;;;;;;34.47;12.75;;;;;;;;;;4884337;29;20040;-85
2022/03/14 03:53:40;;;;;;;35.30;12.52;;;;;;;;;;4884502;29;20028;-85
2022/03/14 03:56:06;;;;;;;35.03;12.27;;;;;;;;;;4901640;29;20124;-83
2022/03/14 03:58:32;;;;;;;30.80;10.68;;;;;;;;;;4884381;29;20036;-85
2022/03/14 04:00:58;;;;;;;36.40;11.35;;;;;;;;;;4902172;29;20376;-84
2022/03/14 04:03:24;;;;;;;31.80;10.52;;;;;;;;;;4891902;29;20029;-84
2022/03/14 04:05:51;;;;;;;24.90;9.68;;;;;;;;;;4917048;29;20021;-84
2022/03/14 04:08:19;;;;;;;25.77;8.45;;;;;;;;;;4900700;29;20451;-88
2022/03/14 04:10:53;;;;;;;23.02;9.05;;;;;;;;;;4883065;29;20025;-88
2022/03/14 04:13:20;;;;;;;23.73;9.52;;;;;;;;;;4884116;29;20025;-86
2022/03/14 04:15:50;;;;;;;18.67;8.60;;;;;;;;;;4883587;29;20389;-85
2022/03/14 04:18:18;;;;;;;18.65;8.48;;;;;;;;;;4884034;29;20024;-85
2022/03/14 04:20:44;;;;;;;24.23;8.85;;;;;;;;;;4883164;29;20028;-85
2022/03/14 04:23:10;;;;;;;28.23;9.27;;;;;;;;;;4884029;29;20390;-85
2022/03/14 04:25:40;;;;;;;22.80;9.07;;;;;;;;;;4883485;29;20057;-91
2022/03/14 04:28:06;;;;;;;21.33;8.35;;;;;;;;;;4883477;29;20032;-86
2022/03/14 04:30:32;;;;;;;26.45;8.30;;;;;;;;;;4883111;29;20036;-88
2022/03/14 04:32:58;;;;;;;21.58;9.63;;;;;;;;;;4883305;29;20032;-89
2022/03/14 04:35:24;;;;;;;25.75;8.90;;;;;;;;;;4883468;29;20029;-85
2022/03/14 04:37:51;;;;;;;29.48;9.88;;;;;;;;;;4899741;29;20032;-88
2022/03/14 04:40:17;;;;;;;27.88;10.80;;;;;;;;;;4883597;29;20059;-85
2022/03/14 04:42:43;;;;;;;27.08;8.73;;;;;;;;;;4883583;29;20040;-85
2022/03/14 04:45:10;;;;;;;25.90;9.88;;;;;;;;;;4882829;29;20501;-85
2022/03/14 04:47:36;;;;;;;32.80;9.63;;;;;;;;;;4883290;29;20036;-85
2022/03/14 04:50:03;;;;;;;26.40;9.65;;;;;;;;;;4882745;29;20538;-90
2022/03/14 04:52:30;;;;;;;20.77;9.02;;;;;;;;;;4882906;29;20063;-85
2022/03/14 04:54:59;;;;;;;25.23;9.63;;;;;;;;;;4883273;29;20040;-86
2022/03/14 04:57:26;;;;;;;23.58;9.73;;;;;;;;;;4883853;29;20076;-89
2022/03/14 04:59:52;;;;;;;24.90;9.70;;;;;;;;;;4882513;29;20390;-84
2022/03/14 05:02:22;;;;;;;25.55;10.20;;;;;;;;;;4883874;29;20061;-85
2022/03/14 05:04:49;;;;;;;23.35;9.10;;;;;;;;;;4883132;29;20032;-88
2022/03/14 05:07:16;;;;;;;22.77;9.10;;;;;;;;;;4884721;29;20037;-83
2022/03/14 05:09:42;;;;;;;21.75;9.13;;;;;;;;;;4882839;29;20041;-84
2022/03/14 05:12:08;;;;;;;20.25;9.27;;;;;;;;;;4882534;29;20032;-81
2022/03/14 05:14:34;;;;;;;19.70;8.63;;;;;;;;;;4882341;29;20061;-81
2022/03/14 05:17:01;;;;;;;25.33;9.27;;;;;;;;;;4882722;29;20496;-83
2022/03/14 05:19:29;;;;;;;24.83;8.98;;;;;;;;;;4882459;29;20139;-84
2022/03/14 05:21:55;;;;;;;26.10;9.30;;;;;;;;;;4899678;29;20080;-87
2022/03/14 05:24:21;;;;;;;23.95;9.50;;;;;;;;;;4882636;29;20057;-82
2022/03/14 05:26:47;;;;;;;28.83;9.60;;;;;;;;;;4882745;29;20032;-87
2022/03/14 05:29:14;;;;;;;26.25;9.05;;;;;;;;;;4881948;29;20040;-83
2022/03/14 05:31:41;;;;;;;25.00;8.95;;;;;;;;;;4883397;29;20032;-84
2022/03/14 05:34:07;;;;;;;24.50;9.88;;;;;;;;;;4882281;29;20061;-81
2022/03/14 05:36:33;;;;;;;25.92;9.95;;;;;;;;;;4881980;29;20497;-89
2022/03/14 05:39:07;;;;;;;25.13;9.27;;;;;;;;;;4898582;29;20043;-85
2022/03/14 05:41:36;;;;;;;29.40;10.63;;;;;;;;;;5116608;23;20106;-82
2022/03/14 05:44:03;;;;;;;25.90;10.23;;;;;;;;;;4899527;29;20029;-82
2022/03/14 05:46:29;;;;;;;25.38;10.05;;;;;;;;;;4898865;29;20025;-83
2022/03/14 05:48:55;;;;;;;22.25;8.80;;;;;;;;;;4881747;29;20040;-83
2022/03/14 06:01:48;;;;;;;30.45;10.98;;;;;;;;;;4964888;23;20111;-83
2022/03/14 06:04:21;;;;;;;41.28;11.95;;;;;;;;;;4899412;29;20519;-84
2022/03/14 06:12:05;;;;;;;28.95;11.23;;;;;;;;;;5001967;23;20059;-84
2022/03/14 06:14:32;;;;;;;28.70;10.88;;;;;;;;;;4881177;29;20035;-87
2022/03/14 06:17:05;;;;;;;40.95;13.50;;;;;;;;;;4883021;29;20505;-89
2022/03/14 06:19:43;;;;;;;32.38;12.70;;;;;;;;;;4881899;29;20040;-86
2022/03/14 06:22:09;;;;;;;35.10;12.95;;;;;;;;;;4881202;29;20092;-86
2022/03/14 06:24:35;;;;;;;42.58;12.82;;;;;;;;;;4881559;29;20460;-86
2022/03/14 06:27:02;;;;;;;27.55;12.50;;;;;;;;;;4881871;29;20036;-85
2022/03/14 06:32:38;;;;;;;20.00;8.18;;;;;;;;;;4898149;29;20089;-86
2022/03/14 06:35:08;;;;;;;21.10;7.82;;;;;;;;;;4884834;29;20127;-87
2022/03/14 06:37:34;;;;;;;23.83;8.35;;;;;;;;;;4885279;29;20053;-86
2022/03/14 06:40:00;;;;;;;17.17;6.70;;;;;;;;;;4885324;29;20037;-87
2022/03/14 06:42:26;;;;;;;16.80;6.93;;;;;;;;;;4886220;29;20389;-87
2022/03/14 06:44:53;;;;;;;20.98;8.10;;;;;;;;;;4885270;29;20036;-87
2022/03/14 06:47:21;;;;;;;19.60;7.20;;;;;;;;;;4884903;29;20020;-88
2022/03/14 06:49:47;;;;;;;18.77;7.82;;;;;;;;;;4884781;29;20161;-85
2022/03/14 06:52:13;;;;;;;17.23;7.78;;;;;;;;;;4884722;29;20477;-93
2022/03/14 06:54:41;;;;;;;20.00;7.30;;;;;;;;;;4902698;29;20040;-87
2022/03/14 06:57:07;;;;;;;24.85;8.43;;;;;;;;;;4885233;29;20137;-88
2022/03/14 06:59:34;;;;;;;20.05;8.20;;;;;;;;;;4885783;29;20036;-85
2022/03/14 07:02:00;;;;;;;28.30;9.80;;;;;;;;;;4884282;29;20508;-84
2022/03/14 07:04:27;;;;;;;27.77;8.75;;;;;;;;;;4884560;29;20034;-85
2022/03/14 07:06:53;;;;;;;13.05;5.68;;;;;;;;;;4884911;29;20029;-85
2022/03/14 07:09:39;;;;;;;12.27;6.70;;;;;;;;;;4904374;29;20037;-92
2022/03/14 07:12:10;;;;;;;26.52;7.38;;;;;;;;;;4948175;23;20070;-92
2022/03/14 07:14:39;;;;;;;27.77;11.25;;;;;;;;;;4886170;29;20393;-91
2022/03/14 07:17:06;;;;;;;17.42;7.30;;;;;;;;;;4885525;29;20533;-90
2022/03/14 07:19:32;;;;;;;24.73;7.15;;;;;;;;;;4884091;29;20032;-86
2022/03/14 07:21:58;;;;;;;16.10;6.82;;;;;;;;;;4884099;29;20033;-87
2022/03/14 07:24:32;;;;;;;16.02;6.55;;;;;;;;;;4887773;29;20029;-94
2022/03/14 07:26:58;;;;;;;19.77;6.95;;;;;;;;;;4885497;29;20028;-91
2022/03/14 07:29:24;;;;;;;18.35;6.68;;;;;;;;;;4871140;29;20048;-90
2022/03/14 07:31:50;;;;;;;16.20;6.78;;;;;;;;;;4885570;29;20029;-90
2022/03/14 07:34:17;;;;;;;12.23;5.68;;;;;;;;;;4887746;29;20036;-90
2022/03/14 07:36:43;;;;;;;11.48;5.28;;;;;;;;;;4885684;29;20024;-84
2022/03/14 07:39:15;;;;;;;13.55;6.57;;;;;;;;;;4884316;29;20127;-91
2022/03/14 07:41:42;;;;;;;19.35;7.82;;;;;;;;;;4884592;29;20033;-86
2022/03/14 07:44:08;;;;;;;16.02;7.00;;;;;;;;;;4901560;29;20048;-86
2022/03/14 07:46:34;;;;;;;19.38;7.70;;;;;;;;;;4883691;29;20148;-84
2022/03/14 07:49:01;;;;;;;20.33;7.57;;;;;;;;;;4883499;29;20043;-85
2022/03/14 07:51:32;;;;;;;12.63;4.53;;;;;;;;;;4885497;29;20085;-94
2022/03/14 07:54:01;;;;;;;17.00;7.80;;;;;;;;;;4883970;29;20044;-95
2022/03/14 07:56:27;;;;;;;13.15;7.20;;;;;;;;;;4887194;29;20092;-89
2022/03/14 07:58:53;;;;;;;16.23;6.75;;;;;;;;;;4882980;29;20140;-84
2022/03/14 08:11:33;;;;;;;12.65;4.80;;;;;;;;;;5375499;23;20175;-87
2022/03/14 08:14:00;;;;;;;16.13;6.72;;;;;;;;;;4880672;29;20033;-84
2022/03/14 08:16:26;;;;;;;17.75;7.00;;;;;;;;;;4863692;29;20033;-85
2022/03/14 08:19:10;;;;;;;19.92;7.63;;;;;;;;;;4881891;29;20072;-87
2022/03/14 08:21:37;;;;;;;29.98;11.63;;;;;;;;;;4879750;29;20040;-86
2022/03/14 08:24:03;;;;;;;15.75;7.15;;;;;;;;;;4879661;29;20058;-84
2022/03/14 08:26:29;;;;;;;23.50;9.40;;;;;;;;;;4881229;29;20037;-78
2022/03/14 08:28:55;;;;;;;9.68;4.35;;;;;;;;;;4879912;29;20033;-84
2022/03/14 08:35:00;;;;;;;13.05;5.85;;;;;;;;;;4899939;29;20063;-86
2022/03/14 08:37:26;;;;;;;18.05;7.38;;;;;;;;;;4883423;29;20034;-86
2022/03/14 08:39:54;;;;;;;11.60;5.45;;;;;;;;;;4900445;29;20035;-87
2022/03/14 08:42:20;;;;;;;11.95;5.55;;;;;;;;;;4882627;29;20036;-86
2022/03/14 08:44:46;;;;;;;13.60;6.30;;;;;;;;;;4882467;29;20474;-87
2022/03/14 08:47:12;;;;;;;13.35;6.88;;;;;;;;;;4882724;29;20079;-85
2022/03/14 08:49:38;;;;;;;11.73;5.43;;;;;;;;;;4882545;29;20044;-86
2022/03/14 08:52:04;;;;;;;13.93;6.45;;;;;;;;;;4882545;29;20452;-87
2022/03/14 08:54:43;;;;;;;96.07;37.38;;;;;;;;;;4882542;29;20131;-87
2022/03/14 09:00:39;;;;;;;32.42;11.70;;;;;;;;;;4887009;29;20451;-86
2022/03/14 09:03:06;;;;;;;12.80;6.07;;;;;;;;;;4882713;29;20478;-87
2022/03/14 09:05:32;;;;;;;15.05;6.82;;;;;;;;;;4882319;29;20505;-86
2022/03/14 09:07:58;;;;;;;12.90;7.03;;;;;;;;;;4884529;29;20039;-86
2022/03/14 09:10:24;;;;;;;27.02;11.05;;;;;;;;;;4883586;29;20064;-86
2022/03/14 09:12:50;;;;;;;16.13;6.80;;;;;;;;;;4882472;29;20029;-87
2022/03/14 09:15:17;;;;;;;37.17;14.00;;;;;;;;;;4898835;29;20029;-85
2022/03/14 09:18:01;;;;;;;16.60;7.25;;;;;;;;;;4898770;29;20063;-86
2022/03/14 09:20:28;;;;;;;23.95;10.00;;;;;;;;;;4882182;29;20035;-87
2022/03/14 09:28:44;;;;;;;17.67;7.35;;;;;;;;;;4902096;29;20388;-85
2022/03/14 09:31:14;;;;;;;9.30;5.32;;;;;;;;;;4882112;29;20119;-84
2022/03/14 09:33:40;;;;;;;14.80;7.63;;;;;;;;;;4882055;29;20039;-85
2022/03/14 09:36:09;;;;;;;15.93;6.63;;;;;;;;;;4900100;23;20096;-86
2022/03/14 09:38:35;;;;;;;12.07;6.40;;;;;;;;;;4881783;29;20085;-85
2022/03/14 09:41:03;;;;;;;14.50;6.88;;;;;;;;;;4881575;29;20385;-86
2022/03/14 09:43:33;;;;;;;13.63;6.30;;;;;;;;;;4881665;29;20039;-86
2022/03/14 09:46:01;;;;;;;19.63;9.55;;;;;;;;;;4883213;29;20037;-86
2022/03/14 09:48:36;;;;;;;13.98;5.47;;;;;;;;;;4880361;29;20032;-86
2022/03/14 09:51:02;;;;;;;17.73;7.80;;;;;;;;;;4882547;29;20041;-85
2022/03/14 09:53:29;;;;;;;14.88;7.15;;;;;;;;;;4882582;29;20032;-86
2022/03/14 09:58:26;;;;;;;18.92;8.23;;;;;;;;;;4894872;29;20146;-85
2022/03/14 10:00:53;;;;;;;14.23;6.63;;;;;;;;;;4898645;29;20115;-86
2022/03/14 10:03:21;;;;;;;15.55;7.22;;;;;;;;;;4880660;29;20474;-86
2022/03/14 10:05:48;;;;;;;14.98;7.53;;;;;;;;;;4879722;29;20044;-85
2022/03/14 10:08:15;;;;;;;15.18;5.55;;;;;;;;;;4880930;29;20549;-84
2022/03/14 10:13:14;;;;;;;15.90;5.75;;;;;;;;;;5027160;23;20051;-85
2022/03/14 10:15:53;;;;;;;17.23;7.10;;;;;;;;;;4881336;29;20024;-86
2022/03/14 10:18:19;;;;;;;16.92;7.20;;;;;;;;;;4881135;29;20036;-85
2022/03/14 10:29:32;;;;;;;11.82;5.93;;;;;;;;;;5484463;23;20048;-85
2022/03/14 10:32:00;;;;;;;9.50;3.67;;;;;;;;;;4880612;29;20037;-86
2022/03/14 10:34:29;;;;;;;10.60;5.47;;;;;;;;;;4879756;29;20371;-84
2022/03/14 10:42:07;;;;;;;18.23;6.72;;;;;;;;;;4899275;29;20045;-86
2022/03/14 10:44:40;;;;;;;9.73;4.47;;;;;;;;;;4881800;29;20037;-84
2022/03/14 10:47:09;;;;;;;11.00;5.05;;;;;;;;;;4862171;29;20486;-86
2022/03/14 10:49:36;;;;;;;10.32;3.40;;;;;;;;;;4862711;29;20033;-85
2022/03/14 10:52:25;;;;;;;13.73;5.60;;;;;;;;;;4862970;29;20029;-89
2022/03/14 10:54:57;;;;;;;11.15;5.40;;;;;;;;;;4870248;29;20033;-93
2022/03/14 11:00:43;;;;;;;8.67;4.50;;;;;;;;;;4881204;29;20124;-91
2022/03/14 11:03:09;;;;;;;9.18;5.10;;;;;;;;;;4863458;29;20762;-88
2022/03/14 11:05:45;;;;;;;9.20;4.28;;;;;;;;;;4879695;29;20029;-85
2022/03/14 11:08:30;;;;;;;8.23;4.82;;;;;;;;;;4862485;29;20025;-83
2022/03/14 11:10:56;;;;;;;9.93;4.32;;;;;;;;;;4862615;29;20132;-84
2022/03/14 11:13:23;;;;;;;10.80;4.30;;;;;;;;;;4862543;29;20030;-85
2022/03/14 11:15:49;;;;;;;12.02;4.72;;;;;;;;;;4863278;29;20486;-84
2022/03/14 11:18:17;;;;;;;9.45;4.38;;;;;;;;;;4862866;29;20513;-84
2022/03/14 11:20:44;;;;;;;8.95;4.13;;;;;;;;;;4865230;29;20028;-85
2022/03/14 11:23:10;;;;;;;6.63;3.30;;;;;;;;;;4865779;29;20036;-87
2022/03/14 11:25:38;;;;;;;8.82;4.13;;;;;;;;;;4865753;29;20029;-85
2022/03/14 11:28:08;;;;;;;10.30;4.53;;;;;;;;;;4884645;29;20029;-91
2022/03/14 11:30:37;;;;;;;10.38;4.82;;;;;;;;;;4860954;29;20053;-90
2022/03/14 11:36:31;;;;;;;8.68;3.70;;;;;;;;;;4892648;29;20036;-92
2022/03/14 11:38:56;;;;;;;8.52;4.15;;;;;;;;;;4896940;29;20032;-89
2022/03/14 11:50:51;;;;;;;5.60;3.10;;;;;;;;;;4871094;29;20045;-87
2022/03/14 11:53:18;;;;;;;8.00;3.33;;;;;;;;;;4849671;29;20040;-91
2022/03/14 11:55:52;;;;;;;7.60;3.08;;;;;;;;;;4847372;29;20043;-86
2022/03/14 11:58:18;;;;;;;;;;;;;;;;;;4846553;29;20116;-85
2022/03/14 12:00:51;;;;;;;8.25;3.03;;;;;;;;;;4857313;29;19956;-94
2022/03/14 12:03:36;;;;;;;5.10;2.53;;;;;;;;;;4865815;29;20037;-86
2022/03/14 12:06:04;;;;;;;8.38;3.63;;;;;;;;;;4881462;29;20052;-85
2022/03/14 12:08:33;;;;;;;11.00;4.40;;;;;;;;;;4865712;29;20037;-87
2022/03/14 12:11:18;;;;;;;7.65;3.58;;;;;;;;;;4883631;29;20033;-86
2022/03/14 12:13:44;;;;;;;8.60;3.17;;;;;;;;;;4881337;29;20060;-84
2022/03/14 12:16:28;;;;;;;6.20;2.95;;;;;;;;;;4881200;29;20029;-87
2022/03/14 12:18:58;;;;;;;10.00;3.30;;;;;;;;;;4864026;29;20111;-90
2022/03/14 12:21:45;;;;;;;8.30;2.97;;;;;;;;;;4862995;29;20499;-90
2022/03/14 12:24:21;;;;;;;8.88;2.72;;;;;;;;;;4848698;29;20511;-92
2022/03/14 12:26:47;;;;;;;7.15;3.38;;;;;;;;;;4852762;29;20473;-87
2022/03/14 12:29:49;;;;;;;7.53;2.75;;;;;;;;;;4851287;29;20052;-77
2022/03/14 12:35:29;;;;;;;3.38;1.95;;;;;;;;;;4815354;29;20118;-88
2022/03/14 12:37:55;;;;;;;6.07;2.58;;;;;;;;;;4845693;29;20072;-84
2022/03/14 12:40:22;;;;;;;5.63;2.95;;;;;;;;;;4845716;29;20077;-82
2022/03/14 12:45:39;;;;;;;6.22;2.53;;;;;;;;;;4869453;29;20072;-84
2022/03/14 12:48:16;;;;;;;8.63;2.30;;;;;;;;;;4863963;29;20076;-85
2022/03/14 12:53:58;;;;;;;7.05;2.85;;;;;;;;;;4915255;23;20060;-87
2022/03/14 12:56:29;;;;;;;7.85;2.55;;;;;;;;;;4898489;29;20032;-82
2022/03/14 12:58:59;;;;;;;7.35;2.33;;;;;;;;;;4898134;29;20131;-86
2022/03/14 13:01:27;;;;;;;5.60;2.53;;;;;;;;;;4897988;29;20033;-85
2022/03/14 13:03:54;;;;;;;4.60;2.25;;;;;;;;;;4902378;29;20021;-86
2022/03/14 13:06:33;;;;;;;7.45;3.03;;;;;;;;;;4899884;29;20065;-86
2022/03/14 13:09:08;;;;;;;15.57;4.55;;;;;;;;;;4899979;29;20405;-86
2022/03/14 13:11:39;;;;;;;7.18;3.10;;;;;;;;;;4901202;29;20032;-86
2022/03/14 13:14:10;;;;;;;6.65;3.13;;;;;;;;;;4892245;29;20107;-86
2022/03/14 13:16:38;;;;;;;7.43;3.17;;;;;;;;;;4907173;23;20052;-88
2022/03/14 13:19:05;;;;;;;7.35;3.05;;;;;;;;;;4882253;29;20032;-88
2022/03/14 13:21:32;;;;;;;7.32;2.90;;;;;;;;;;4884319;29;20154;-82
2022/03/14 13:24:03;;;;;;;5.22;2.38;;;;;;;;;;4887573;29;20037;-85
2022/03/14 13:26:33;;;;;;;7.70;2.95;;;;;;;;;;4882121;29;20032;-85
2022/03/14 13:29:01;;;;;;;6.55;2.60;;;;;;;;;;4882197;29;20044;-85
2022/03/14 13:31:48;;;;;;;4.18;2.22;;;;;;;;;;4884053;29;20056;-86
2022/03/14 13:34:16;;;;;;;5.68;2.55;;;;;;;;;;4881587;29;20485;-87
2022/03/14 13:36:44;;;;;;;6.20;2.70;;;;;;;;;;4883816;29;20120;-87
2022/03/14 13:39:11;;;;;;;5.43;2.72;;;;;;;;;;4883903;29;20500;-85
2022/03/14 13:41:38;;;;;;;6.65;3.33;;;;;;;;;;4882262;29;20232;-88
2022/03/14 13:44:08;;;;;;;11.43;3.75;;;;;;;;;;4881218;29;20115;-87
2022/03/14 13:46:38;;;;;;;5.80;2.80;;;;;;;;;;4881793;29;20035;-86
2022/03/14 13:49:04;;;;;;;12.02;3.38;;;;;;;;;;4882222;29;20127;-87
2022/03/14 13:51:32;;;;;;;8.85;3.15;;;;;;;;;;4898620;29;20431;-86
2022/03/14 13:54:02;;;;;;;8.13;3.10;;;;;;;;;;4881660;29;20029;-85
2022/03/14 13:56:32;;;;;;;6.32;3.10;;;;;;;;;;4881319;29;20036;-87
2022/03/14 13:58:58;;;;;;;8.60;3.40;;;;;;;;;;4881661;29;20035;-88
2022/03/14 14:01:41;;;;;;;8.05;3.20;;;;;;;;;;4881767;29;20068;-87
2022/03/14 14:04:15;;;;;;;8.13;3.95;;;;;;;;;;4881461;29;20124;-86
2022/03/14 14:06:45;;;;;;;20.77;8.60;;;;;;;;;;4881994;29;20029;-85
2022/03/14 14:09:19;;;;;;;8.77;3.92;;;;;;;;;;4898308;29;20068;-80
2022/03/14 14:12:03;;;;;;;12.07;4.40;;;;;;;;;;4898823;29;20031;-88
2022/03/14 14:14:30;;;;;;;8.55;4.00;;;;;;;;;;4881553;29;20043;-81
2022/03/14 14:17:13;;;;;;;41.45;19.70;;;;;;;;;;4881002;29;20071;-85
2022/03/14 14:19:59;;;;;;;30.73;15.52;;;;;;;;;;4881715;29;20115;-81
2022/03/14 14:22:41;;;;;;;25.25;10.55;;;;;;;;;;4880980;29;20478;-86
2022/03/14 14:25:13;;;;;;;12.90;5.80;;;;;;;;;;4881033;29;20048;-86
2022/03/14 14:27:50;;;;;;;7.78;3.60;;;;;;;;;;4880839;29;20036;-87
2022/03/14 14:30:16;;;;;;;17.70;5.43;;;;;;;;;;4880825;29;20520;-86
2022/03/14 14:32:42;;;;;;;10.70;4.85;;;;;;;;;;4880795;29;20025;-89
2022/03/14 14:35:08;;;;;;;7.13;3.53;;;;;;;;;;4880543;29;20553;-86
2022/03/14 14:37:35;;;;;;;8.48;3.85;;;;;;;;;;4881038;29;20108;-88
2022/03/14 14:40:03;;;;;;;17.92;9.27;;;;;;;;;;4881235;29;20041;-88
2022/03/14 14:42:30;;;;;;;12.38;3.92;;;;;;;;;;4882344;29;20025;-88
2022/03/14 14:44:57;;;;;;;9.15;3.88;;;;;;;;;;4881490;29;20036;-88
2022/03/14 14:47:25;;;;;;;10.55;4.15;;;;;;;;;;4881358;29;20085;-88
2022/03/14 14:49:58;;;;;;;9.13;4.18;;;;;;;;;;4883342;29;20032;-87
2022/03/14 14:52:24;;;;;;;9.70;3.92;;;;;;;;;;4881148;29;20036;-87
2022/03/14 14:54:51;;;;;;;7.43;3.47;;;;;;;;;;4883151;29;20032;-88
2022/03/14 14:57:17;;;;;;;8.52;3.53;;;;;;;;;;4885242;29;20081;-89
2022/03/14 14:59:43;;;;;;;7.97;3.60;;;;;;;;;;4885170;29;20043;-87
2022/03/14 15:02:09;;;;;;;8.77;4.00;;;;;;;;;;4884996;29;20025;-90
2022/03/14 15:04:35;;;;;;;9.70;3.83;;;;;;;;;;4885176;29;20040;-86
2022/03/14 15:07:02;;;;;;;8.18;3.67;;;;;;;;;;4884973;29;20032;-87
2022/03/14 15:09:28;;;;;;;8.52;3.47;;;;;;;;;;4884657;29;20048;-88
2022/03/14 15:11:55;;;;;;;7.50;3.25;;;;;;;;;;4901131;29;20080;-87
2022/03/14 15:14:21;;;;;;;9.32;3.45;;;;;;;;;;4901493;29;20025;-87
2022/03/14 15:16:47;;;;;;;7.28;3.17;;;;;;;;;;4884628;29;20151;-87
2022/03/14 15:19:14;;;;;;;8.90;3.58;;;;;;;;;;4885507;29;20060;-87
2022/03/14 15:21:40;;;;;;;9.52;4.25;;;;;;;;;;4884622;29;20363;-87
2022/03/14 15:24:07;;;;;;;8.93;3.83;;;;;;;;;;4884254;29;20029;-88
2022/03/14 15:26:33;;;;;;;8.35;3.17;;;;;;;;;;4884639;29;20028;-87
2022/03/14 15:28:59;;;;;;;8.45;3.45;;;;;;;;;;4884285;29;20486;-88
2022/03/14 15:31:25;;;;;;;8.10;4.00;;;;;;;;;;4884483;29;20036;-88
2022/03/14 15:33:52;;;;;;;8.18;3.17;;;;;;;;;;4884915;29;20025;-87
2022/03/14 15:36:21;;;;;;;12.95;3.17;;;;;;;;;;4901324;29;20110;-91
2022/03/14 15:38:47;;;;;;;6.07;2.63;;;;;;;;;;4883979;29;20123;-90
2022/03/14 15:44:40;;;;;;;11.67;4.30;;;;;;;;;;4901404;29;20043;-87
2022/03/14 20:38:40;;;;;;;52.97;19.48;;;;;;;;;;4963875;23;20061;-84
2022/03/14 20:41:12;;;;;;;46.08;20.02;;;;;;;;;;4844332;29;20034;-89
2022/03/14 20:43:38;;;;;;;51.65;21.00;;;;;;;;;;4828505;29;20037;-87
2022/03/14 20:46:07;;;;;;;53.80;22.45;;;;;;;;;;4828996;29;20391;-87
2022/03/14 20:51:40;;;;;;;49.03;18.30;;;;;;;;;;4825568;29;20050;-84
2022/03/14 21:05:51;;;;;;;34.13;14.85;;;;;;;;;;4844307;29;20057;-89
2022/03/14 21:11:25;;;;;;;41.15;15.68;;;;;;;;;;4844149;29;20053;-83
2022/03/14 21:19:25;;;;;;;35.22;14.80;;;;;;;;;;4860815;29;20041;-84